createdAt,value
2022-11-13T00:01:21.738Z,3.90
2022-11-13T00:03:48.642Z,4.00
2022-11-13T00:06:16.617Z,3.90
2022-11-13T00:08:43.565Z,3.90
2022-11-13T00:11:12.301Z,3.80
2022-11-13T00:13:39.198Z,3.70
2022-11-13T00:16:07.208Z,3.70
2022-11-13T00:18:34.802Z,3.70
2022-11-13T00:21:05.690Z,3.70
2022-11-13T00:23:34.760Z,3.80
2022-11-13T00:26:08.951Z,3.80
2022-11-13T00:28:35.781Z,3.90
2022-11-13T00:31:03.367Z,4.00
2022-11-13T00:33:59.783Z,3.80
2022-11-13T00:36:18.700Z,3.80
2022-11-13T00:38:45.598Z,3.80
2022-11-13T00:41:12.518Z,3.80
2022-11-13T00:43:39.438Z,3.90
2022-11-13T00:46:06.234Z,3.90
2022-11-13T00:48:33.009Z,3.80
2022-11-13T00:50:59.626Z,3.70
2022-11-13T00:53:26.677Z,3.70
2022-11-13T00:55:53.371Z,3.70
2022-11-13T00:58:20.010Z,3.70
2022-11-13T01:00:47.725Z,3.70
2022-11-13T01:03:14.819Z,3.70
2022-11-13T01:05:44.623Z,3.70
2022-11-13T01:08:12.358Z,3.70
2022-11-13T01:10:41.510Z,3.80
2022-11-13T01:13:08.616Z,3.80
2022-11-13T01:15:35.210Z,3.70
2022-11-13T01:18:01.863Z,3.70
2022-11-13T01:20:28.458Z,3.70
2022-11-13T01:22:55.170Z,3.70
2022-11-13T01:25:21.875Z,3.60
2022-11-13T01:27:48.537Z,3.60
2022-11-13T01:30:15.190Z,3.60
2022-11-13T01:32:41.818Z,3.50
2022-11-13T01:35:08.652Z,3.50
2022-11-13T01:37:35.331Z,3.50
2022-11-13T01:40:01.930Z,3.50
2022-11-13T01:42:28.656Z,3.50
2022-11-13T01:44:59.727Z,3.40
2022-11-13T01:47:26.788Z,3.40
2022-11-13T01:49:56.154Z,3.50
2022-11-13T01:52:24.573Z,3.50
2022-11-13T01:54:56.109Z,3.60
2022-11-13T01:57:22.875Z,3.60
2022-11-13T01:59:58.263Z,3.60
2022-11-13T02:02:24.879Z,3.60
2022-11-13T02:04:51.841Z,3.60
2022-11-13T02:07:20.099Z,3.60
2022-11-13T02:09:48.297Z,3.70
2022-11-13T02:12:16.196Z,3.70
2022-11-13T02:14:44.543Z,3.70
2022-11-13T02:17:12.983Z,3.70
2022-11-13T02:19:42.112Z,3.70
2022-11-13T02:22:17.994Z,3.60
2022-11-13T02:24:47.919Z,3.60
2022-11-13T02:27:37.994Z,3.60
2022-11-13T02:30:16.178Z,3.60
2022-11-13T02:32:45.405Z,3.60
2022-11-13T02:35:13.364Z,3.60
2022-11-13T02:37:40.046Z,3.50
2022-11-13T02:40:07.097Z,3.40
2022-11-13T02:42:33.804Z,3.40
2022-11-13T02:45:01.214Z,3.30
2022-11-13T02:47:28.215Z,3.30
2022-11-13T02:49:54.834Z,3.30
2022-11-13T02:52:21.525Z,3.30
2022-11-13T02:54:48.197Z,3.30
2022-11-13T02:57:14.880Z,3.30
2022-11-13T02:59:42.367Z,3.30
2022-11-13T03:02:09.050Z,3.40
2022-11-13T03:05:05.149Z,3.50
2022-11-13T03:07:22.376Z,3.40
2022-11-13T03:09:49.025Z,3.40
2022-11-13T03:12:15.751Z,3.30
2022-11-13T03:14:42.390Z,3.30
2022-11-13T03:17:09.006Z,3.30
2022-11-13T03:19:35.665Z,3.40
2022-11-13T03:22:02.274Z,3.50
2022-11-13T03:24:28.911Z,3.60
2022-11-13T03:26:55.720Z,3.60
2022-11-13T03:29:22.380Z,3.60
2022-11-13T03:31:49.124Z,3.60
2022-11-13T03:34:15.801Z,3.70
2022-11-13T03:36:42.573Z,3.70
2022-11-13T03:39:09.167Z,3.70
2022-11-13T03:41:35.789Z,3.70
2022-11-13T03:44:02.414Z,3.70
2022-11-13T03:46:29.016Z,3.70
2022-11-13T03:48:55.634Z,3.60
2022-11-13T03:51:22.321Z,3.70
2022-11-13T03:53:48.930Z,3.70
2022-11-13T03:56:15.759Z,3.70
2022-11-13T03:58:47.058Z,3.70
2022-11-13T04:01:16.077Z,3.70
2022-11-13T04:03:42.805Z,3.70
2022-11-13T04:06:09.708Z,3.60
2022-11-13T04:08:36.351Z,3.60
2022-11-13T04:11:10.309Z,3.60
2022-11-13T04:13:36.951Z,3.60
2022-11-13T04:16:04.167Z,3.50
2022-11-13T04:18:31.017Z,3.40
2022-11-13T04:21:01.615Z,3.40
2022-11-13T04:23:28.469Z,3.50
2022-11-13T04:25:55.410Z,3.50
2022-11-13T04:28:22.110Z,3.50
2022-11-13T04:30:48.923Z,3.50
2022-11-13T04:33:15.542Z,3.50
2022-11-13T04:35:45.632Z,3.50
2022-11-13T04:38:12.882Z,3.50
2022-11-13T04:40:39.747Z,3.40
2022-11-13T04:43:06.680Z,3.40
2022-11-13T04:45:33.739Z,3.50
2022-11-13T04:48:00.410Z,3.40
2022-11-13T04:50:27.287Z,3.40
2022-11-13T04:52:54.009Z,3.50
2022-11-13T04:55:20.643Z,3.30
2022-11-13T04:57:47.299Z,3.20
2022-11-13T05:00:14.107Z,3.20
2022-11-13T05:02:40.736Z,3.30
2022-11-13T05:05:07.562Z,3.20
2022-11-13T05:07:34.215Z,3.30
2022-11-13T05:10:01.037Z,3.20
2022-11-13T05:12:27.704Z,3.00
2022-11-13T05:14:54.403Z,3.00
2022-11-13T05:17:21.060Z,3.00
2022-11-13T05:19:47.672Z,2.90
2022-11-13T05:22:14.332Z,2.90
2022-11-13T05:24:40.964Z,3.00
2022-11-13T05:27:09.541Z,3.00
2022-11-13T05:29:39.446Z,3.00
2022-11-13T05:32:06.035Z,3.00
2022-11-13T05:34:32.708Z,2.90
2022-11-13T05:36:59.339Z,2.90
2022-11-13T05:39:25.964Z,3.00
2022-11-13T05:41:52.713Z,3.00
2022-11-13T05:44:19.363Z,3.00
2022-11-13T05:46:45.977Z,3.00
2022-11-13T05:49:12.631Z,3.10
2022-11-13T05:51:39.392Z,3.00
2022-11-13T05:54:06.359Z,3.00
2022-11-13T05:56:34.911Z,2.90
2022-11-13T05:59:03.878Z,2.90
2022-11-13T06:01:32.105Z,3.00
2022-11-13T06:03:59.500Z,3.00
2022-11-13T06:06:26.714Z,2.90
2022-11-13T06:08:53.857Z,2.80
2022-11-13T06:11:21.960Z,2.80
2022-11-13T06:13:49.185Z,2.80
2022-11-13T06:16:17.244Z,2.80
2022-11-13T06:18:44.909Z,2.80
2022-11-13T06:21:13.399Z,2.80
2022-11-13T06:23:40.622Z,2.80
2022-11-13T06:26:08.889Z,2.90
2022-11-13T06:28:35.840Z,3.00
2022-11-13T06:31:04.123Z,3.10
2022-11-13T06:33:30.978Z,3.10
2022-11-13T06:35:57.931Z,3.10
2022-11-13T06:38:24.586Z,3.20
2022-11-13T06:40:51.249Z,3.20
2022-11-13T06:43:17.855Z,3.30
2022-11-13T06:45:44.499Z,3.30
2022-11-13T06:48:11.135Z,3.30
2022-11-13T06:50:37.808Z,3.20
2022-11-13T06:53:04.422Z,3.10
2022-11-13T06:55:31.074Z,3.10
2022-11-13T06:57:57.710Z,3.10
2022-11-13T07:00:24.388Z,3.10
2022-11-13T07:02:51.180Z,3.00
2022-11-13T07:05:18.075Z,3.00
2022-11-13T07:07:44.715Z,3.00
2022-11-13T07:10:11.390Z,3.00
2022-11-13T07:12:38.070Z,2.90
2022-11-13T07:15:05.161Z,3.00
2022-11-13T07:17:31.938Z,3.00
2022-11-13T07:19:58.554Z,3.00
2022-11-13T07:22:25.571Z,2.90
2022-11-13T07:24:52.241Z,2.90
2022-11-13T07:27:18.840Z,2.90
2022-11-13T07:29:45.451Z,3.10
2022-11-13T07:32:12.082Z,3.20
2022-11-13T07:34:38.667Z,3.30
2022-11-13T07:37:08.200Z,3.30
2022-11-13T07:39:34.865Z,3.30
2022-11-13T07:42:01.449Z,3.30
2022-11-13T07:44:52.833Z,3.20
2022-11-13T07:47:14.644Z,3.30
2022-11-13T07:49:41.289Z,3.30
2022-11-13T07:52:08.022Z,3.30
2022-11-13T07:54:35.280Z,3.40
2022-11-13T07:57:01.911Z,3.40
2022-11-13T07:59:28.542Z,3.50
2022-11-13T08:01:55.201Z,3.50
2022-11-13T08:04:21.855Z,3.40
2022-11-13T08:06:48.574Z,3.50
2022-11-13T08:09:15.310Z,3.60
2022-11-13T08:11:41.960Z,3.70
2022-11-13T08:14:08.598Z,3.80
2022-11-13T08:16:35.209Z,3.90
2022-11-13T08:19:02.081Z,4.00
2022-11-13T08:21:28.721Z,4.20
2022-11-13T08:23:55.436Z,4.20
2022-11-13T08:26:22.479Z,4.30
2022-11-13T08:28:49.223Z,4.20
2022-11-13T08:31:16.524Z,4.10
2022-11-13T08:33:43.147Z,4.10
2022-11-13T08:36:10.777Z,4.10
2022-11-13T08:38:37.574Z,4.20
2022-11-13T08:41:08.976Z,4.30
2022-11-13T08:43:36.416Z,4.30
2022-11-13T08:46:03.020Z,4.40
2022-11-13T08:48:30.071Z,4.40
2022-11-13T08:50:57.468Z,4.50
2022-11-13T08:53:24.639Z,4.50
2022-11-13T08:55:51.287Z,4.40
2022-11-13T08:58:18.250Z,4.40
2022-11-13T09:00:44.900Z,4.50
2022-11-13T09:03:12.355Z,4.40
2022-11-13T09:05:38.990Z,4.40
2022-11-13T09:08:06.303Z,4.30
2022-11-13T09:10:33.361Z,4.30
2022-11-13T09:13:01.933Z,4.40
2022-11-13T09:15:28.950Z,4.30
2022-11-13T09:17:56.205Z,4.30
2022-11-13T09:20:23.232Z,4.30
2022-11-13T09:22:55.981Z,4.40
2022-11-13T09:25:22.671Z,4.50
2022-11-13T09:27:56.513Z,4.50
2022-11-13T09:30:23.629Z,4.60
2022-11-13T09:32:54.712Z,4.60
2022-11-13T09:35:33.913Z,4.60
2022-11-13T09:38:11.338Z,4.70
2022-11-13T09:40:38.473Z,4.50
2022-11-13T09:43:07.957Z,4.50
2022-11-13T09:45:34.695Z,4.60
2022-11-13T09:48:24.358Z,4.70
2022-11-13T09:50:51.738Z,4.70
2022-11-13T09:53:18.525Z,4.80
2022-11-13T09:56:04.035Z,4.80
2022-11-13T09:58:45.404Z,4.70
2022-11-13T10:01:17.608Z,4.80
2022-11-13T10:04:00.550Z,4.80
2022-11-13T10:06:47.894Z,5.00
2022-11-13T10:09:19.701Z,5.00
2022-11-13T10:11:50.431Z,5.10
2022-11-13T10:14:19.614Z,5.20
2022-11-13T10:16:53.731Z,5.30
2022-11-13T10:19:20.356Z,5.30
2022-11-13T10:21:52.268Z,5.40
2022-11-13T10:24:27.462Z,5.30
2022-11-13T10:26:59.383Z,5.30
2022-11-13T10:29:28.157Z,5.50
2022-11-13T10:31:54.958Z,5.50
2022-11-13T10:34:21.702Z,5.60
2022-11-13T10:37:03.214Z,5.50
2022-11-13T10:39:29.877Z,5.60
2022-11-13T10:41:56.524Z,5.70
2022-11-13T10:44:32.817Z,5.80
2022-11-13T10:47:15.237Z,5.80
2022-11-13T10:49:41.900Z,5.90
2022-11-13T10:52:20.194Z,6.00
2022-11-13T10:54:47.538Z,6.00
2022-11-13T10:57:25.953Z,6.00
2022-11-13T10:59:52.798Z,6.10
2022-11-13T11:02:20.847Z,6.20
2022-11-13T11:04:47.790Z,6.10
2022-11-13T11:07:21.505Z,6.10
2022-11-13T11:09:49.056Z,6.00
2022-11-13T11:12:21.206Z,6.00
2022-11-13T11:14:59.107Z,6.10
2022-11-13T11:17:46.960Z,6.20
2022-11-13T11:20:32.461Z,6.30
2022-11-13T11:23:19.569Z,6.30
2022-11-13T11:25:50.417Z,6.50
2022-11-13T11:28:22.791Z,6.70
2022-11-13T11:31:03.815Z,6.80
2022-11-13T11:33:46.189Z,6.90
2022-11-13T11:36:21.753Z,7.00
2022-11-13T11:38:52.823Z,7.10
2022-11-13T11:41:21.400Z,7.20
2022-11-13T11:43:51.019Z,7.20
2022-11-13T11:46:21.045Z,7.30
2022-11-13T11:48:47.778Z,7.30
2022-11-13T11:51:31.418Z,7.30
2022-11-13T11:54:07.316Z,7.40
2022-11-13T11:56:36.116Z,7.50
2022-11-13T11:59:15.702Z,7.60
2022-11-13T12:02:00.579Z,7.80
2022-11-13T12:04:46.068Z,7.90
2022-11-13T12:07:20.897Z,8.00
2022-11-13T12:09:55.771Z,8.00
2022-11-13T12:12:33.315Z,8.00
2022-11-13T12:15:05.049Z,8.10
2022-11-13T12:17:50.750Z,8.20
2022-11-13T12:20:23.581Z,8.30
2022-11-13T12:23:02.439Z,8.30
2022-11-13T12:25:35.224Z,8.30
2022-11-13T12:28:04.681Z,8.40
2022-11-13T12:30:43.594Z,8.40
2022-11-13T12:33:19.434Z,8.40
2022-11-13T12:35:47.607Z,8.40
2022-11-13T12:38:23.204Z,8.60
2022-11-13T12:41:12.545Z,8.70
2022-11-13T12:43:51.672Z,8.80
2022-11-13T12:46:18.711Z,8.70
2022-11-13T12:48:46.427Z,8.80
2022-11-13T12:51:14.773Z,8.80
2022-11-13T12:53:48.988Z,8.90
2022-11-13T12:56:24.794Z,9.00
2022-11-13T12:59:15.353Z,9.10
2022-11-13T13:01:44.321Z,9.10
2022-11-13T13:04:29.890Z,9.10
2022-11-13T13:07:08.770Z,9.20
2022-11-13T13:09:58.992Z,9.10
2022-11-13T13:12:44.309Z,9.20
2022-11-13T13:15:31.374Z,9.20
2022-11-13T13:18:12.545Z,9.20
2022-11-13T13:20:40.297Z,9.20
2022-11-13T13:23:10.315Z,9.30
2022-11-13T13:25:37.360Z,9.40
2022-11-13T13:28:04.065Z,9.50
2022-11-13T13:30:35.199Z,9.50
2022-11-13T13:33:07.858Z,9.60
2022-11-13T13:35:39.212Z,9.60
2022-11-13T13:38:05.835Z,9.50
2022-11-13T13:40:44.286Z,9.40
2022-11-13T13:43:17.001Z,9.40
2022-11-13T13:45:50.388Z,9.50
2022-11-13T13:48:19.483Z,9.50
2022-11-13T13:50:47.375Z,9.60
2022-11-13T13:53:16.036Z,9.70
2022-11-13T13:55:48.751Z,9.70
2022-11-13T13:58:17.050Z,9.60
2022-11-13T14:01:05.222Z,9.50
2022-11-13T14:03:30.490Z,9.50
2022-11-13T14:06:08.000Z,9.50
2022-11-13T14:08:34.638Z,9.50
2022-11-13T14:11:03.657Z,9.50
2022-11-13T14:13:30.508Z,9.50
2022-11-13T14:16:04.366Z,9.50
2022-11-13T14:18:31.625Z,9.50
2022-11-13T14:20:59.946Z,9.70
2022-11-13T14:23:29.819Z,9.70
2022-11-13T14:25:57.319Z,9.70
2022-11-13T14:28:25.380Z,9.60
2022-11-13T14:30:56.721Z,9.50
2022-11-13T14:33:31.560Z,9.50
2022-11-13T14:35:58.809Z,9.50
2022-11-13T14:38:36.893Z,9.50
2022-11-13T14:41:04.294Z,9.40
2022-11-13T14:43:32.009Z,9.50
2022-11-13T14:46:00.532Z,9.60
2022-11-13T14:48:28.780Z,9.60
2022-11-13T14:50:56.838Z,9.50
2022-11-13T14:53:42.124Z,9.40
2022-11-13T14:56:10.664Z,9.40
2022-11-13T14:58:43.641Z,9.40
2022-11-13T15:01:14.162Z,9.40
2022-11-13T15:03:40.814Z,9.40
2022-11-13T15:06:13.788Z,9.40
2022-11-13T15:08:40.564Z,9.40
2022-11-13T15:11:08.977Z,9.50
2022-11-13T15:13:35.637Z,9.50
2022-11-13T15:16:02.563Z,9.60
2022-11-13T15:18:29.349Z,9.50
2022-11-13T15:20:56.403Z,9.50
2022-11-13T15:23:24.698Z,9.40
2022-11-13T15:25:51.425Z,9.40
2022-11-13T15:28:18.051Z,9.30
2022-11-13T15:30:44.704Z,9.10
2022-11-13T15:33:15.173Z,9.00
2022-11-13T15:35:42.893Z,9.00
2022-11-13T15:38:10.109Z,9.00
2022-11-13T15:40:37.492Z,8.90
2022-11-13T15:43:04.885Z,9.00
2022-11-13T15:45:31.551Z,9.10
2022-11-13T15:47:58.244Z,9.20
2022-11-13T15:50:24.919Z,9.10
2022-11-13T15:52:52.379Z,8.90
2022-11-13T15:55:21.117Z,8.80
2022-11-13T15:57:47.933Z,8.70
2022-11-13T16:00:21.722Z,8.60
2022-11-13T16:02:50.740Z,8.40
2022-11-13T16:05:17.822Z,8.20
2022-11-13T16:07:44.494Z,8.10
2022-11-13T16:10:11.106Z,7.90
2022-11-13T16:12:38.271Z,7.90
2022-11-13T16:15:05.194Z,7.80
2022-11-13T16:17:33.437Z,7.70
2022-11-13T16:20:00.109Z,7.70
2022-11-13T16:22:27.188Z,7.70
2022-11-13T16:24:54.017Z,7.60
2022-11-13T16:27:28.055Z,7.60
2022-11-13T16:29:55.100Z,7.50
2022-11-13T16:32:22.155Z,7.40
2022-11-13T16:34:48.763Z,7.30
2022-11-13T16:37:16.761Z,7.30
2022-11-13T16:39:44.205Z,7.20
2022-11-13T16:42:11.303Z,7.20
2022-11-13T16:44:38.919Z,7.20
2022-11-13T16:47:06.697Z,7.20
2022-11-13T16:49:33.467Z,7.10
2022-11-13T16:52:00.133Z,7.10
2022-11-13T16:54:26.761Z,7.00
2022-11-13T16:56:53.501Z,7.00
2022-11-13T16:59:20.333Z,7.00
2022-11-13T17:01:47.175Z,7.00
2022-11-13T17:04:16.801Z,6.80
2022-11-13T17:06:43.639Z,6.80
2022-11-13T17:09:10.548Z,6.70
2022-11-13T17:11:37.227Z,6.70
2022-11-13T17:14:04.626Z,6.60
2022-11-13T17:16:31.570Z,6.60
2022-11-13T17:18:58.726Z,6.50
2022-11-13T17:21:27.582Z,6.40
2022-11-13T17:23:55.054Z,6.40
2022-11-13T17:26:22.527Z,6.30
2022-11-13T17:28:49.172Z,6.30
2022-11-13T17:31:16.104Z,6.20
2022-11-13T17:33:42.794Z,6.20
2022-11-13T17:36:09.959Z,6.10
2022-11-13T17:38:37.610Z,6.10
2022-11-13T17:41:11.857Z,6.10
2022-11-13T17:43:39.344Z,6.00
2022-11-13T17:46:06.985Z,6.00
2022-11-13T17:48:34.299Z,6.00
2022-11-13T17:51:02.144Z,6.10
2022-11-13T17:53:29.648Z,6.10
2022-11-13T17:56:00.819Z,6.10
2022-11-13T17:58:28.233Z,6.10
2022-11-13T18:01:02.366Z,6.00
2022-11-13T18:03:29.461Z,6.10
2022-11-13T18:05:56.400Z,6.10
2022-11-13T18:08:22.984Z,6.10
2022-11-13T18:10:49.627Z,6.10
2022-11-13T18:13:16.290Z,6.00
2022-11-13T18:15:44.182Z,6.00
2022-11-13T18:18:11.292Z,5.90
2022-11-13T18:20:39.102Z,5.90
2022-11-13T18:23:05.790Z,5.90
2022-11-13T18:25:38.476Z,5.80
2022-11-13T18:28:06.503Z,5.80
2022-11-13T18:30:33.142Z,5.80
2022-11-13T18:32:59.866Z,5.90
2022-11-13T18:35:26.560Z,5.90
2022-11-13T18:37:53.230Z,5.90
2022-11-13T18:40:19.949Z,5.90
2022-11-13T18:42:46.658Z,6.00
2022-11-13T18:45:16.340Z,6.00
2022-11-13T18:47:43.106Z,6.30
2022-11-13T18:50:10.114Z,6.30
2022-11-13T18:52:36.837Z,6.30
2022-11-13T18:55:03.877Z,6.30
2022-11-13T18:57:30.587Z,6.40
2022-11-13T18:59:57.248Z,6.50
2022-11-13T19:02:23.976Z,6.60
2022-11-13T19:04:50.674Z,6.60
2022-11-13T19:07:17.462Z,6.70
2022-11-13T19:09:46.067Z,6.80
2022-11-13T19:12:12.776Z,6.90
2022-11-13T19:14:39.378Z,7.00
2022-11-13T19:17:05.998Z,7.10
2022-11-13T19:19:32.633Z,7.10
2022-11-13T19:21:59.229Z,7.10
2022-11-13T19:24:25.814Z,7.10
2022-11-13T19:26:52.447Z,7.00
2022-11-13T19:29:20.205Z,6.90
2022-11-13T19:31:48.429Z,6.90
2022-11-13T19:34:15.359Z,6.90
2022-11-13T19:36:44.940Z,6.90
2022-11-13T19:39:11.994Z,6.90
2022-11-13T19:41:38.727Z,7.00
2022-11-13T19:44:06.573Z,7.00
2022-11-13T19:46:34.109Z,7.00
2022-11-13T19:49:00.951Z,7.10
2022-11-13T19:51:27.944Z,7.20
2022-11-13T19:53:55.613Z,7.30
2022-11-13T19:56:23.435Z,7.40
2022-11-13T19:58:50.738Z,7.40
2022-11-13T20:01:18.663Z,7.50
2022-11-13T20:03:45.448Z,7.50
2022-11-13T20:06:13.729Z,7.70
2022-11-13T20:08:40.395Z,7.70
2022-11-13T20:11:10.283Z,8.00
2022-11-13T20:13:38.160Z,8.10
2022-11-13T20:16:06.072Z,8.20
2022-11-13T20:18:32.940Z,8.20
2022-11-13T20:20:59.696Z,8.30
2022-11-13T20:23:26.689Z,8.30
2022-11-13T20:25:54.188Z,8.20
2022-11-13T20:28:21.057Z,8.20
2022-11-13T20:30:47.733Z,8.20
2022-11-13T20:33:17.275Z,8.20
2022-11-13T20:35:53.263Z,8.20
2022-11-13T20:38:20.049Z,8.20
2022-11-13T20:40:46.849Z,8.30
2022-11-13T20:43:13.562Z,8.20
2022-11-13T20:45:40.200Z,8.20
2022-11-13T20:48:06.830Z,8.20
2022-11-13T20:50:35.553Z,8.20
2022-11-13T20:53:02.269Z,8.10
2022-11-13T20:55:29.330Z,8.10
2022-11-13T20:57:56.686Z,8.10
2022-11-13T21:00:23.735Z,8.10
2022-11-13T21:02:50.913Z,8.00
2022-11-13T21:05:17.508Z,8.00
2022-11-13T21:07:44.263Z,8.00
2022-11-13T21:10:10.917Z,8.00
2022-11-13T21:12:37.579Z,8.00
2022-11-13T21:15:04.600Z,8.10
2022-11-13T21:17:31.464Z,8.10
2022-11-13T21:19:58.175Z,8.10
2022-11-13T21:22:24.804Z,8.00
2022-11-13T21:24:51.463Z,8.00
2022-11-13T21:27:18.159Z,8.00
2022-11-13T21:29:44.773Z,8.00
2022-11-13T21:32:11.412Z,7.90
2022-11-13T21:34:38.404Z,7.90
2022-11-13T21:37:05.068Z,7.90
2022-11-13T21:39:31.720Z,7.80
2022-11-13T21:41:58.436Z,7.90
2022-11-13T21:44:25.261Z,7.90
2022-11-13T21:47:17.458Z,7.80
2022-11-13T21:49:44.548Z,7.80
2022-11-13T21:52:11.888Z,7.70
2022-11-13T21:54:38.518Z,7.60
2022-11-13T21:57:05.289Z,7.60
2022-11-13T21:59:32.038Z,7.60
2022-11-13T22:01:59.465Z,7.60
2022-11-13T22:04:26.318Z,7.70
2022-11-13T22:06:53.154Z,7.70
2022-11-13T22:09:19.884Z,7.60
2022-11-13T22:11:46.606Z,7.60
2022-11-13T22:14:13.347Z,7.70
2022-11-13T22:16:42.090Z,7.70
2022-11-13T22:19:16.925Z,7.90
2022-11-13T22:21:44.303Z,8.00
2022-11-13T22:24:11.555Z,8.10
2022-11-13T22:26:39.804Z,8.10
2022-11-13T22:29:06.558Z,8.10
2022-11-13T22:31:33.863Z,8.30
2022-11-13T22:34:01.071Z,8.40
2022-11-13T22:36:35.458Z,8.50
2022-11-13T22:39:02.168Z,8.80
2022-11-13T22:41:32.937Z,9.20
2022-11-13T22:44:00.713Z,9.00
2022-11-13T22:46:28.778Z,8.90
2022-11-13T22:48:56.363Z,8.90
2022-11-13T22:51:24.686Z,8.90
2022-11-13T22:53:59.002Z,8.80
2022-11-13T22:56:26.930Z,8.80
2022-11-13T22:58:54.514Z,8.80
2022-11-13T23:01:22.256Z,8.70
2022-11-13T23:03:49.471Z,8.60
2022-11-13T23:06:17.983Z,8.30
2022-11-13T23:08:44.673Z,8.20
2022-11-13T23:11:13.070Z,8.10
2022-11-13T23:13:44.155Z,8.10
2022-11-13T23:16:14.273Z,8.10
2022-11-13T23:18:40.982Z,8.00
2022-11-13T23:21:08.698Z,8.00
2022-11-13T23:23:35.797Z,8.00
2022-11-13T23:26:02.805Z,7.90
2022-11-13T23:28:29.960Z,7.80
2022-11-13T23:30:56.811Z,7.70
2022-11-13T23:33:23.455Z,7.70
2022-11-13T23:35:50.868Z,7.70
2022-11-13T23:38:17.634Z,7.60
2022-11-13T23:40:44.376Z,7.50
2022-11-13T23:43:11.166Z,7.50
2022-11-13T23:45:37.917Z,7.50
2022-11-13T23:48:04.774Z,7.50
2022-11-13T23:50:31.668Z,7.50
2022-11-13T23:52:58.302Z,7.40
2022-11-13T23:55:24.995Z,7.40
2022-11-13T23:57:58.456Z,7.40
